createdAt,value
2023-01-29T00:02:52.821Z,-1.57
2023-01-29T00:07:59.112Z,-1.51
2023-01-29T00:13:05.675Z,-1.49
2023-01-29T00:18:11.338Z,-1.49
2023-01-29T00:23:16.992Z,-1.51
2023-01-29T00:28:22.823Z,-1.56
2023-01-29T00:33:30.399Z,-1.63
2023-01-29T00:38:37.633Z,-1.65
2023-01-29T00:44:02.320Z,-1.65
2023-01-29T00:49:08.689Z,-1.58
2023-01-29T00:54:14.570Z,-1.53
2023-01-29T00:59:20.212Z,-1.52
2023-01-29T01:04:26.138Z,-1.54
2023-01-29T01:09:50.429Z,-1.57
2023-01-29T01:14:56.430Z,-1.63
2023-01-29T01:20:02.284Z,-1.61
2023-01-29T01:25:09.553Z,-1.58
2023-01-29T01:30:17.131Z,-1.58
2023-01-29T01:35:23.494Z,-1.60
2023-01-29T01:40:29.314Z,-1.64
2023-01-29T01:45:36.812Z,-1.67
2023-01-29T01:50:46.181Z,-1.73
2023-01-29T01:55:56.126Z,-1.77
2023-01-29T02:01:03.684Z,-1.80
2023-01-29T02:06:29.425Z,-1.78
2023-01-29T02:11:35.548Z,-1.71
2023-01-29T02:16:41.266Z,-1.67
2023-01-29T02:22:12.877Z,-1.67
2023-01-29T02:27:24.371Z,-1.69
2023-01-29T02:32:34.237Z,-1.72
2023-01-29T02:37:45.556Z,-1.76
2023-01-29T02:42:57.580Z,-1.81
2023-01-29T02:48:04.237Z,-1.79
2023-01-29T02:53:14.634Z,-1.73
2023-01-29T02:58:28.142Z,-1.68
2023-01-29T03:03:37.616Z,-1.67
2023-01-29T03:08:50.089Z,-1.69
2023-01-29T03:14:02.964Z,-1.73
2023-01-29T03:19:17.428Z,-1.76
2023-01-29T03:24:49.253Z,-1.77
2023-01-29T03:30:16.298Z,-1.80
2023-01-29T03:35:36.826Z,-1.76
2023-01-29T03:40:51.417Z,-1.70
2023-01-29T03:46:05.108Z,-1.66
2023-01-29T03:51:22.965Z,-1.65
2023-01-29T03:56:45.578Z,-1.66
2023-01-29T04:01:54.335Z,-1.69
2023-01-29T04:07:08.303Z,-1.71
2023-01-29T04:12:19.544Z,-1.71
2023-01-29T04:17:33.048Z,-1.65
2023-01-29T04:22:57.412Z,-1.61
2023-01-29T04:28:11.411Z,-1.61
2023-01-29T04:33:28.411Z,-1.61
2023-01-29T04:38:47.438Z,-1.64
2023-01-29T04:44:03.412Z,-1.68
2023-01-29T04:49:18.775Z,-1.70
2023-01-29T04:54:36.629Z,-1.67
2023-01-29T04:59:48.269Z,-1.60
2023-01-29T05:04:56.318Z,-1.56
2023-01-29T05:10:02.699Z,-1.56
2023-01-29T05:15:14.369Z,-1.56
2023-01-29T05:20:20.627Z,-1.57
2023-01-29T05:25:28.661Z,-1.60
2023-01-29T05:30:37.145Z,-1.58
2023-01-29T05:35:43.249Z,-1.51
2023-01-29T05:40:49.257Z,-1.47
2023-01-29T05:45:58.891Z,-1.47
2023-01-29T05:51:05.836Z,-1.49
2023-01-29T05:56:11.838Z,-1.52
2023-01-29T06:01:20.346Z,-1.54
2023-01-29T06:06:26.186Z,-1.50
2023-01-29T06:11:31.880Z,-1.47
2023-01-29T06:16:37.424Z,-1.45
2023-01-29T06:21:43.171Z,-1.46
2023-01-29T06:26:48.906Z,-1.48
2023-01-29T06:31:54.626Z,-1.46
2023-01-29T06:37:00.505Z,-1.39
2023-01-29T06:42:06.356Z,-1.33
2023-01-29T06:47:12.089Z,-1.31
2023-01-29T06:52:17.845Z,-1.32
2023-01-29T06:57:24.287Z,-1.34
2023-01-29T07:02:30.167Z,-1.31
2023-01-29T07:07:37.375Z,-1.24
2023-01-29T07:12:43.067Z,-1.18
2023-01-29T07:17:59.885Z,-1.14
2023-01-29T07:23:06.180Z,-1.09
2023-01-29T07:28:11.930Z,-1.07
2023-01-29T07:33:17.481Z,-1.02
2023-01-29T07:38:23.654Z,-0.92
2023-01-29T07:43:30.296Z,-0.81
2023-01-29T07:48:35.907Z,-0.77
2023-01-29T07:53:42.041Z,-0.72
2023-01-29T07:58:47.856Z,-0.64
2023-01-29T08:03:53.412Z,-0.54
2023-01-29T08:08:59.876Z,-0.51
2023-01-29T08:14:05.637Z,-0.46
2023-01-29T08:19:11.447Z,-0.41
2023-01-29T08:24:17.784Z,-0.36
2023-01-29T08:29:24.104Z,-0.27
2023-01-29T08:34:29.711Z,-0.22
2023-01-29T08:39:35.351Z,-0.23
2023-01-29T08:44:41.103Z,-0.26
2023-01-29T08:49:47.724Z,-0.23
2023-01-29T08:54:53.408Z,-0.12
2023-01-29T08:59:59.202Z,-0.05
2023-01-29T09:05:05.955Z,-0.03
2023-01-29T09:10:13.579Z,0.02
2023-01-29T09:15:19.899Z,0.02
2023-01-29T09:20:26.308Z,0.06
2023-01-29T09:25:32.082Z,0.11
2023-01-29T09:30:38.211Z,0.12
2023-01-29T09:35:46.885Z,0.10
2023-01-29T09:41:00.683Z,0.08
2023-01-29T09:46:15.292Z,0.07
2023-01-29T09:51:29.296Z,0.12
2023-01-29T09:56:35.256Z,0.34
2023-01-29T10:01:50.839Z,0.54
2023-01-29T10:07:12.113Z,0.66
2023-01-29T10:12:35.599Z,0.75
2023-01-29T10:18:00.481Z,0.75
2023-01-29T10:23:25.205Z,0.73
2023-01-29T10:28:36.845Z,0.62
2023-01-29T10:34:01.123Z,0.53
2023-01-29T10:39:18.225Z,0.57
2023-01-29T10:44:33.895Z,0.68
2023-01-29T10:49:56.415Z,0.83
2023-01-29T10:55:16.771Z,0.82
2023-01-29T11:00:26.569Z,0.68
2023-01-29T11:05:38.783Z,0.57
2023-01-29T11:10:54.441Z,0.51
2023-01-29T11:16:00.156Z,0.46
2023-01-29T11:21:06.840Z,0.42
2023-01-29T11:26:18.336Z,0.39
2023-01-29T11:31:28.144Z,0.40
2023-01-29T11:36:38.342Z,0.48
2023-01-29T11:41:47.970Z,0.56
2023-01-29T11:46:53.915Z,0.60
2023-01-29T11:52:03.399Z,0.65
2023-01-29T11:57:23.013Z,0.65
2023-01-29T12:02:34.205Z,0.57
2023-01-29T12:07:43.418Z,0.47
2023-01-29T12:12:49.744Z,0.38
2023-01-29T12:18:02.858Z,0.30
2023-01-29T12:23:19.852Z,0.22
2023-01-29T12:28:36.952Z,0.16
2023-01-29T12:33:51.548Z,0.18
2023-01-29T12:38:59.012Z,0.21
2023-01-29T12:44:13.567Z,0.23
2023-01-29T12:49:24.488Z,0.21
2023-01-29T12:54:31.992Z,0.15
2023-01-29T12:59:43.458Z,0.11
2023-01-29T13:04:56.003Z,0.09
2023-01-29T13:10:10.483Z,0.06
2023-01-29T13:15:26.391Z,-0.03
2023-01-29T13:20:35.008Z,-0.06
2023-01-29T13:25:40.827Z,-0.06
2023-01-29T13:30:47.586Z,-0.06
2023-01-29T13:36:00.232Z,-0.08
2023-01-29T13:41:10.510Z,-0.06
2023-01-29T13:46:21.368Z,0.01
2023-01-29T13:51:35.104Z,0.03
2023-01-29T13:56:59.202Z,-0.01
2023-01-29T14:02:22.222Z,-0.04
2023-01-29T14:07:54.664Z,-0.07
2023-01-29T14:13:28.352Z,-0.12
2023-01-29T14:18:36.345Z,-0.13
2023-01-29T14:23:48.131Z,-0.13
2023-01-29T14:29:25.628Z,-0.16
2023-01-29T14:34:50.073Z,-0.24
2023-01-29T14:40:16.428Z,-0.27
2023-01-29T14:48:11.996Z,-0.25
2023-01-29T14:53:45.672Z,-0.34
2023-01-29T14:59:06.222Z,-0.34
2023-01-29T15:04:27.434Z,-0.35
2023-01-29T15:09:41.929Z,-0.39
2023-01-29T15:15:00.165Z,-0.41
2023-01-29T15:20:28.690Z,-0.39
2023-01-29T15:25:37.607Z,-0.39
2023-01-29T15:30:45.102Z,-0.42
2023-01-29T15:36:06.352Z,-0.41
2023-01-29T15:41:20.292Z,-0.40
2023-01-29T15:46:28.797Z,-0.43
2023-01-29T15:51:35.016Z,-0.46
2023-01-29T15:56:44.667Z,-0.46
2023-01-29T16:01:51.451Z,-0.47
2023-01-29T16:06:58.773Z,-0.46
2023-01-29T16:12:04.994Z,-0.43
2023-01-29T16:17:25.168Z,-0.43
2023-01-29T16:22:35.577Z,-0.45
2023-01-29T16:27:43.647Z,-0.42
2023-01-29T16:32:50.669Z,-0.37
2023-01-29T16:38:02.709Z,-0.38
2023-01-29T16:43:48.170Z,-0.40
2023-01-29T16:48:54.353Z,-0.37
2023-01-29T16:54:02.346Z,-0.37
2023-01-29T16:59:15.905Z,-0.38
2023-01-29T17:04:22.369Z,-0.38
2023-01-29T17:09:33.130Z,-0.32
2023-01-29T17:14:42.013Z,-0.34
2023-01-29T17:19:47.669Z,-0.35
2023-01-29T17:24:53.476Z,-0.33
2023-01-29T17:29:59.764Z,-0.32
2023-01-29T17:35:06.593Z,-0.33
2023-01-29T17:40:21.951Z,-0.31
2023-01-29T17:45:27.859Z,-0.30
2023-01-29T17:50:35.599Z,-0.31
2023-01-29T17:55:41.232Z,-0.31
2023-01-29T18:00:47.040Z,-0.27
2023-01-29T18:05:52.729Z,-0.28
2023-01-29T18:10:58.756Z,-0.29
2023-01-29T18:16:04.606Z,-0.28
2023-01-29T18:21:10.261Z,-0.27
2023-01-29T18:26:17.900Z,-0.29
2023-01-29T18:31:23.556Z,-0.26
2023-01-29T18:36:29.715Z,-0.24
2023-01-29T18:41:36.206Z,-0.26
2023-01-29T18:46:42.323Z,-0.27
2023-01-29T18:51:47.834Z,-0.26
2023-01-29T18:57:07.752Z,-0.23
2023-01-29T19:02:20.002Z,-0.26
2023-01-29T19:07:26.522Z,-0.26
2023-01-29T19:12:33.800Z,-0.24
2023-01-29T19:17:39.867Z,-0.25
2023-01-29T19:22:46.045Z,-0.26
2023-01-29T19:27:51.762Z,-0.24
2023-01-29T19:32:57.543Z,-0.22
2023-01-29T19:38:04.250Z,-0.23
2023-01-29T19:43:10.090Z,-0.21
2023-01-29T19:48:20.442Z,-0.15
2023-01-29T19:53:27.604Z,-0.14
2023-01-29T19:58:34.694Z,-0.15
2023-01-29T20:03:42.042Z,-0.14
2023-01-29T20:08:47.745Z,-0.11
2023-01-29T20:13:54.395Z,-0.11
2023-01-29T20:19:14.216Z,-0.14
2023-01-29T20:24:23.979Z,-0.14
2023-01-29T20:29:30.779Z,-0.12
2023-01-29T20:34:36.651Z,-0.13
2023-01-29T20:39:42.230Z,-0.14
2023-01-29T20:44:47.828Z,-0.10
2023-01-29T20:49:53.471Z,-0.08
2023-01-29T20:54:59.467Z,-0.08
2023-01-29T21:00:08.610Z,-0.09
2023-01-29T21:05:15.350Z,-0.06
2023-01-29T21:10:21.583Z,-0.05
2023-01-29T21:15:27.449Z,-0.07
2023-01-29T21:20:36.857Z,-0.07
2023-01-29T21:25:42.578Z,-0.08
2023-01-29T21:30:48.184Z,-0.09
2023-01-29T21:35:59.958Z,-0.08
2023-01-29T21:41:08.940Z,-0.03
2023-01-29T21:46:16.217Z,0.00
2023-01-29T21:51:22.638Z,-0.02
2023-01-29T21:56:28.420Z,0.00
2023-01-29T22:01:41.727Z,0.03
2023-01-29T22:06:47.613Z,-0.02
2023-01-29T22:11:53.551Z,-0.02
2023-01-29T22:16:59.256Z,0.05
2023-01-29T22:22:05.038Z,0.06
2023-01-29T22:27:10.692Z,0.07
2023-01-29T22:32:16.533Z,0.12
2023-01-29T22:37:42.376Z,0.16
2023-01-29T22:42:48.228Z,0.13
2023-01-29T22:47:53.873Z,0.14
2023-01-29T22:53:24.200Z,0.13
2023-01-29T22:58:33.536Z,0.15
2023-01-29T23:03:39.274Z,0.17
2023-01-29T23:08:50.393Z,0.22
2023-01-29T23:13:57.740Z,0.23
2023-01-29T23:19:03.490Z,0.22
2023-01-29T23:24:11.042Z,0.24
2023-01-29T23:29:16.921Z,0.27
2023-01-29T23:34:22.715Z,0.30
2023-01-29T23:39:28.405Z,0.33
2023-01-29T23:44:35.625Z,0.35
2023-01-29T23:49:41.195Z,0.36
2023-01-29T23:54:46.854Z,0.40
2023-01-29T23:59:52.601Z,0.45
